sensor_id;sensor_type;location;lat;lon;timestamp;pressure;altitude;pressure_sealevel;temperature;humidity
51926;BME280;37952;51.938;15.480;2022-11-09T00:02:58;99413.80;;;11.21;68.54
51926;BME280;37952;51.938;15.480;2022-11-09T00:06:01;99407.20;;;11.22;68.46
51926;BME280;37952;51.938;15.480;2022-11-09T00:09:05;99412.55;;;11.26;68.35
51926;BME280;37952;51.938;15.480;2022-11-09T00:12:09;99402.77;;;11.28;68.19
51926;BME280;37952;51.938;15.480;2022-11-09T00:15:11;99397.17;;;11.29;68.05
51926;BME280;37952;51.938;15.480;2022-11-09T00:18:12;99395.75;;;11.27;68.08
51926;BME280;37952;51.938;15.480;2022-11-09T00:21:22;99398.02;;;11.25;68.09
51926;BME280;37952;51.938;15.480;2022-11-09T00:24:24;99391.77;;;11.21;68.11
51926;BME280;37952;51.938;15.480;2022-11-09T00:27:30;99386.33;;;11.26;67.98
51926;BME280;37952;51.938;15.480;2022-11-09T00:30:31;99394.55;;;11.26;67.94
51926;BME280;37952;51.938;15.480;2022-11-09T00:33:33;99395.33;;;11.26;68.06
51926;BME280;37952;51.938;15.480;2022-11-09T00:36:35;99394.39;;;11.24;68.04
51926;BME280;37952;51.938;15.480;2022-11-09T00:39:39;99397.25;;;11.23;67.99
51926;BME280;37952;51.938;15.480;2022-11-09T00:42:41;99389.76;;;11.19;67.97
51926;BME280;37952;51.938;15.480;2022-11-09T00:45:43;99389.08;;;11.22;67.92
51926;BME280;37952;51.938;15.480;2022-11-09T00:49:12;99398.31;;;11.18;67.84
51926;BME280;37952;51.938;15.480;2022-11-09T00:52:14;99394.59;;;11.21;67.90
51926;BME280;37952;51.938;15.480;2022-11-09T00:55:51;99399.54;;;11.23;67.88
51926;BME280;37952;51.938;15.480;2022-11-09T00:58:55;99396.54;;;11.15;67.77
51926;BME280;37952;51.938;15.480;2022-11-09T01:01:56;99397.14;;;11.09;67.98
51926;BME280;37952;51.938;15.480;2022-11-09T01:04:58;99395.63;;;11.05;67.94
51926;BME280;37952;51.938;15.480;2022-11-09T01:08:02;99397.11;;;11.07;67.92
51926;BME280;37952;51.938;15.480;2022-11-09T01:11:05;99397.64;;;11.10;67.91
51926;BME280;37952;51.938;15.480;2022-11-09T01:14:08;99399.45;;;11.09;67.79
51926;BME280;37952;51.938;15.480;2022-11-09T01:17:09;99396.69;;;11.08;67.72
51926;BME280;37952;51.938;15.480;2022-11-09T01:20:11;99398.45;;;11.00;67.85
51926;BME280;37952;51.938;15.480;2022-11-09T01:23:15;99402.97;;;11.01;67.91
51926;BME280;37952;51.938;15.480;2022-11-09T01:26:24;99398.56;;;11.04;67.81
51926;BME280;37952;51.938;15.480;2022-11-09T01:29:25;99404.73;;;11.01;67.82
51926;BME280;37952;51.938;15.480;2022-11-09T01:32:30;99408.70;;;10.94;67.88
51926;BME280;37952;51.938;15.480;2022-11-09T01:35:34;99407.18;;;10.91;67.95
51926;BME280;37952;51.938;15.480;2022-11-09T01:38:37;99403.73;;;10.92;67.98
51926;BME280;37952;51.938;15.480;2022-11-09T01:41:39;99411.47;;;10.90;68.00
51926;BME280;37952;51.938;15.480;2022-11-09T01:44:41;99403.39;;;10.90;67.99
51926;BME280;37952;51.938;15.480;2022-11-09T01:47:44;99403.07;;;10.94;67.81
51926;BME280;37952;51.938;15.480;2022-11-09T01:50:52;99398.23;;;10.98;67.65
51926;BME280;37952;51.938;15.480;2022-11-09T01:54:02;99398.69;;;11.00;67.67
51926;BME280;37952;51.938;15.480;2022-11-09T01:57:13;99395.19;;;10.99;67.62
51926;BME280;37952;51.938;15.480;2022-11-09T02:00:17;99391.39;;;10.98;67.54
51926;BME280;37952;51.938;15.480;2022-11-09T02:03:24;99388.31;;;11.02;67.45
51926;BME280;37952;51.938;15.480;2022-11-09T02:06:28;99388.02;;;10.98;67.36
51926;BME280;37952;51.938;15.480;2022-11-09T02:09:52;99385.85;;;10.93;67.59
51926;BME280;37952;51.938;15.480;2022-11-09T02:12:57;99395.68;;;10.94;67.61
51926;BME280;37952;51.938;15.480;2022-11-09T02:16:00;99391.71;;;10.93;67.41
51926;BME280;37952;51.938;15.480;2022-11-09T02:19:01;99390.44;;;10.91;67.53
51926;BME280;37952;51.938;15.480;2022-11-09T02:22:03;99383.59;;;10.90;67.56
51926;BME280;37952;51.938;15.480;2022-11-09T02:25:06;99384.45;;;10.88;67.65
51926;BME280;37952;51.938;15.480;2022-11-09T02:28:08;99379.66;;;10.89;67.66
51926;BME280;37952;51.938;15.480;2022-11-09T02:31:12;99384.05;;;10.86;67.63
51926;BME280;37952;51.938;15.480;2022-11-09T02:34:19;99389.67;;;10.84;67.60
51926;BME280;37952;51.938;15.480;2022-11-09T02:37:38;99383.70;;;10.84;67.71
51926;BME280;37952;51.938;15.480;2022-11-09T02:40:43;99378.51;;;10.90;67.66
51926;BME280;37952;51.938;15.480;2022-11-09T02:43:46;99383.20;;;10.91;67.48
51926;BME280;37952;51.938;15.480;2022-11-09T02:46:48;99383.29;;;10.95;67.50
51926;BME280;37952;51.938;15.480;2022-11-09T02:49:50;99385.53;;;11.01;67.24
51926;BME280;37952;51.938;15.480;2022-11-09T02:52:51;99381.52;;;10.95;67.17
51926;BME280;37952;51.938;15.480;2022-11-09T02:55:53;99382.19;;;10.93;67.12
51926;BME280;37952;51.938;15.480;2022-11-09T02:58:54;99385.45;;;10.94;67.29
51926;BME280;37952;51.938;15.480;2022-11-09T03:01:55;99380.16;;;10.91;67.14
51926;BME280;37952;51.938;15.480;2022-11-09T03:04:57;99388.64;;;10.89;67.10
51926;BME280;37952;51.938;15.480;2022-11-09T03:07:58;99385.06;;;10.89;66.99
51926;BME280;37952;51.938;15.480;2022-11-09T03:11:02;99386.34;;;10.89;67.03
51926;BME280;37952;51.938;15.480;2022-11-09T03:14:06;99380.45;;;10.90;67.04
51926;BME280;37952;51.938;15.480;2022-11-09T03:17:10;99365.84;;;10.84;67.01
51926;BME280;37952;51.938;15.480;2022-11-09T03:20:16;99369.54;;;10.82;67.05
51926;BME280;37952;51.938;15.480;2022-11-09T03:23:17;99367.63;;;10.81;67.00
51926;BME280;37952;51.938;15.480;2022-11-09T03:26:20;99368.96;;;10.83;66.92
51926;BME280;37952;51.938;15.480;2022-11-09T03:29:22;99365.39;;;10.78;66.98
51926;BME280;37952;51.938;15.480;2022-11-09T03:32:24;99361.60;;;10.72;67.02
51926;BME280;37952;51.938;15.480;2022-11-09T03:35:27;99366.29;;;10.73;67.12
51926;BME280;37952;51.938;15.480;2022-11-09T03:38:29;99368.16;;;10.76;67.14
51926;BME280;37952;51.938;15.480;2022-11-09T03:41:30;99374.52;;;10.76;67.10
51926;BME280;37952;51.938;15.480;2022-11-09T03:44:31;99371.96;;;10.80;66.95
51926;BME280;37952;51.938;15.480;2022-11-09T03:47:33;99381.83;;;10.80;66.87
51926;BME280;37952;51.938;15.480;2022-11-09T03:50:35;99383.07;;;10.80;67.04
51926;BME280;37952;51.938;15.480;2022-11-09T03:53:40;99379.01;;;10.72;67.06
51926;BME280;37952;51.938;15.480;2022-11-09T03:56:42;99374.95;;;10.69;67.11
51926;BME280;37952;51.938;15.480;2022-11-09T03:59:43;99366.64;;;10.70;67.15
51926;BME280;37952;51.938;15.480;2022-11-09T04:02:45;99364.57;;;10.69;67.01
51926;BME280;37952;51.938;15.480;2022-11-09T04:05:46;99362.27;;;10.67;67.12
51926;BME280;37952;51.938;15.480;2022-11-09T04:08:48;99352.60;;;10.64;67.35
51926;BME280;37952;51.938;15.480;2022-11-09T04:11:52;99357.41;;;10.60;67.26
51926;BME280;37952;51.938;15.480;2022-11-09T04:15:08;99361.19;;;10.62;67.29
51926;BME280;37952;51.938;15.480;2022-11-09T04:18:12;99363.16;;;10.61;67.26
51926;BME280;37952;51.938;15.480;2022-11-09T04:21:16;99358.51;;;10.54;67.34
51926;BME280;37952;51.938;15.480;2022-11-09T04:24:24;99359.59;;;10.56;67.53
51926;BME280;37952;51.938;15.480;2022-11-09T04:27:26;99355.02;;;10.62;67.26
51926;BME280;37952;51.938;15.480;2022-11-09T04:34:24;99352.64;;;10.58;67.19
51926;BME280;37952;51.938;15.480;2022-11-09T04:37:26;99354.77;;;10.58;67.23
51926;BME280;37952;51.938;15.480;2022-11-09T04:40:30;99348.84;;;10.54;67.31
51926;BME280;37952;51.938;15.480;2022-11-09T04:43:32;99353.99;;;10.56;67.37
51926;BME280;37952;51.938;15.480;2022-11-09T04:46:33;99352.62;;;10.61;67.39
51926;BME280;37952;51.938;15.480;2022-11-09T04:49:35;99349.79;;;10.63;67.18
51926;BME280;37952;51.938;15.480;2022-11-09T04:52:36;99351.30;;;10.62;66.98
51926;BME280;37952;51.938;15.480;2022-11-09T04:55:39;99349.00;;;10.60;67.23
51926;BME280;37952;51.938;15.480;2022-11-09T04:58:42;99343.41;;;10.56;67.23
51926;BME280;37952;51.938;15.480;2022-11-09T05:01:43;99343.75;;;10.56;67.30
51926;BME280;37952;51.938;15.480;2022-11-09T05:04:45;99343.23;;;10.53;67.27
51926;BME280;37952;51.938;15.480;2022-11-09T05:07:46;99341.27;;;10.51;67.37
51926;BME280;37952;51.938;15.480;2022-11-09T05:10:48;99336.13;;;10.57;67.27
51926;BME280;37952;51.938;15.480;2022-11-09T05:13:49;99328.98;;;10.53;67.40
51926;BME280;37952;51.938;15.480;2022-11-09T05:16:54;99316.82;;;10.53;67.44
51926;BME280;37952;51.938;15.480;2022-11-09T05:19:55;99314.48;;;10.48;67.54
51926;BME280;37952;51.938;15.480;2022-11-09T05:22:58;99317.69;;;10.48;67.33
51926;BME280;37952;51.938;15.480;2022-11-09T05:26:19;99318.59;;;10.48;67.52
51926;BME280;37952;51.938;15.480;2022-11-09T05:29:20;99321.73;;;10.45;67.64
51926;BME280;37952;51.938;15.480;2022-11-09T05:32:21;99325.64;;;10.42;67.77
51926;BME280;37952;51.938;15.480;2022-11-09T05:35:23;99330.27;;;10.44;67.73
51926;BME280;37952;51.938;15.480;2022-11-09T05:38:24;99339.39;;;10.45;67.54
51926;BME280;37952;51.938;15.480;2022-11-09T05:41:26;99341.07;;;10.40;67.58
51926;BME280;37952;51.938;15.480;2022-11-09T05:44:28;99349.46;;;10.39;67.94
51926;BME280;37952;51.938;15.480;2022-11-09T05:47:36;99360.23;;;10.41;67.85
51926;BME280;37952;51.938;15.480;2022-11-09T05:50:38;99361.52;;;10.40;67.68
51926;BME280;37952;51.938;15.480;2022-11-09T05:53:40;99360.63;;;10.35;67.99
51926;BME280;37952;51.938;15.480;2022-11-09T05:56:47;99363.00;;;10.31;68.23
51926;BME280;37952;51.938;15.480;2022-11-09T05:59:49;99368.52;;;10.30;68.31
51926;BME280;37952;51.938;15.480;2022-11-09T06:02:51;99372.56;;;10.36;68.17
51926;BME280;37952;51.938;15.480;2022-11-09T06:05:52;99381.72;;;10.36;68.08
51926;BME280;37952;51.938;15.480;2022-11-09T06:08:56;99386.20;;;10.32;68.35
51926;BME280;37952;51.938;15.480;2022-11-09T06:11:58;99385.62;;;10.27;68.57
51926;BME280;37952;51.938;15.480;2022-11-09T06:15:03;99382.66;;;10.32;68.51
51926;BME280;37952;51.938;15.480;2022-11-09T06:18:05;99379.55;;;10.34;68.51
51926;BME280;37952;51.938;15.480;2022-11-09T06:21:07;99383.48;;;10.30;68.60
51926;BME280;37952;51.938;15.480;2022-11-09T06:24:09;99382.66;;;10.29;68.70
51926;BME280;37952;51.938;15.480;2022-11-09T06:27:10;99391.71;;;10.34;68.70
51926;BME280;37952;51.938;15.480;2022-11-09T06:30:12;99395.15;;;10.40;68.58
51926;BME280;37952;51.938;15.480;2022-11-09T06:33:14;99392.42;;;10.41;68.42
51926;BME280;37952;51.938;15.480;2022-11-09T06:36:16;99393.71;;;10.33;68.73
51926;BME280;37952;51.938;15.480;2022-11-09T06:39:17;99389.43;;;10.36;68.62
51926;BME280;37952;51.938;15.480;2022-11-09T06:42:20;99382.88;;;10.42;68.54
51926;BME280;37952;51.938;15.480;2022-11-09T06:45:22;99375.87;;;10.48;68.47
51926;BME280;37952;51.938;15.480;2022-11-09T06:48:24;99369.50;;;10.40;68.63
51926;BME280;37952;51.938;15.480;2022-11-09T06:51:25;99374.71;;;10.43;68.59
51926;BME280;37952;51.938;15.480;2022-11-09T06:54:30;99384.96;;;10.42;68.52
51926;BME280;37952;51.938;15.480;2022-11-09T06:57:31;99383.70;;;10.43;68.70
51926;BME280;37952;51.938;15.480;2022-11-09T07:00:33;99392.48;;;10.50;68.43
51926;BME280;37952;51.938;15.480;2022-11-09T07:03:35;99391.23;;;10.46;68.54
51926;BME280;37952;51.938;15.480;2022-11-09T07:06:41;99394.97;;;10.52;68.53
51926;BME280;37952;51.938;15.480;2022-11-09T07:09:42;99395.30;;;10.43;68.67
51926;BME280;37952;51.938;15.480;2022-11-09T07:12:45;99381.77;;;10.43;68.64
51926;BME280;37952;51.938;15.480;2022-11-09T07:15:51;99386.10;;;10.47;68.82
51926;BME280;37952;51.938;15.480;2022-11-09T07:18:53;99390.25;;;10.51;68.69
51926;BME280;37952;51.938;15.480;2022-11-09T07:21:56;99387.73;;;10.52;68.53
51926;BME280;37952;51.938;15.480;2022-11-09T07:24:58;99393.91;;;10.58;68.44
51926;BME280;37952;51.938;15.480;2022-11-09T07:28:04;99387.98;;;10.64;68.33
51926;BME280;37952;51.938;15.480;2022-11-09T07:31:08;99385.16;;;10.70;68.05
51926;BME280;37952;51.938;15.480;2022-11-09T07:34:10;99379.62;;;10.76;67.85
51926;BME280;37952;51.938;15.480;2022-11-09T07:37:14;99379.33;;;10.80;67.68
51926;BME280;37952;51.938;15.480;2022-11-09T07:40:16;99392.55;;;10.80;67.68
51926;BME280;37952;51.938;15.480;2022-11-09T07:43:18;99402.38;;;10.84;67.71
51926;BME280;37952;51.938;15.480;2022-11-09T07:50:05;99409.58;;;10.92;67.40
51926;BME280;37952;51.938;15.480;2022-11-09T07:53:09;99407.39;;;10.90;67.26
51926;BME280;37952;51.938;15.480;2022-11-09T07:56:11;99401.16;;;10.96;67.37
51926;BME280;37952;51.938;15.480;2022-11-09T07:59:12;99402.38;;;10.97;67.27
51926;BME280;37952;51.938;15.480;2022-11-09T08:02:14;99402.61;;;10.99;67.31
51926;BME280;37952;51.938;15.480;2022-11-09T08:05:16;99403.61;;;10.97;67.30
51926;BME280;37952;51.938;15.480;2022-11-09T08:08:18;99397.83;;;11.02;67.35
51926;BME280;37952;51.938;15.480;2022-11-09T08:11:20;99402.06;;;11.07;67.37
51926;BME280;37952;51.938;15.480;2022-11-09T08:14:21;99401.36;;;11.12;67.31
51926;BME280;37952;51.938;15.480;2022-11-09T08:17:23;99403.44;;;11.10;67.30
51926;BME280;37952;51.938;15.480;2022-11-09T08:20:25;99404.13;;;11.10;67.28
51926;BME280;37952;51.938;15.480;2022-11-09T08:23:26;99404.36;;;11.17;67.29
51926;BME280;37952;51.938;15.480;2022-11-09T08:26:28;99407.45;;;11.18;67.33
51926;BME280;37952;51.938;15.480;2022-11-09T08:29:29;99409.73;;;11.26;67.26
51926;BME280;37952;51.938;15.480;2022-11-09T08:32:57;99418.65;;;11.33;67.18
51926;BME280;37952;51.938;15.480;2022-11-09T08:36:00;99412.61;;;11.36;67.11
51926;BME280;37952;51.938;15.480;2022-11-09T08:39:04;99408.48;;;11.39;67.14
51926;BME280;37952;51.938;15.480;2022-11-09T08:42:07;99412.98;;;11.41;67.08
51926;BME280;37952;51.938;15.480;2022-11-09T08:45:09;99412.53;;;11.42;67.11
51926;BME280;37952;51.938;15.480;2022-11-09T08:48:12;99411.82;;;11.42;67.04
51926;BME280;37952;51.938;15.480;2022-11-09T08:51:13;99409.10;;;11.48;66.87
51926;BME280;37952;51.938;15.480;2022-11-09T08:54:15;99406.40;;;11.49;66.93
51926;BME280;37952;51.938;15.480;2022-11-09T08:57:18;99408.83;;;11.52;66.94
51926;BME280;37952;51.938;15.480;2022-11-09T09:00:20;99411.50;;;11.57;66.95
51926;BME280;37952;51.938;15.480;2022-11-09T09:03:22;99412.95;;;11.62;66.86
51926;BME280;37952;51.938;15.480;2022-11-09T09:06:24;99409.77;;;11.72;66.82
51926;BME280;37952;51.938;15.480;2022-11-09T09:09:32;99411.35;;;11.77;66.71
51926;BME280;37952;51.938;15.480;2022-11-09T09:12:35;99412.83;;;11.84;66.75
51926;BME280;37952;51.938;15.480;2022-11-09T09:15:37;99426.98;;;11.88;66.59
51926;BME280;37952;51.938;15.480;2022-11-09T09:18:39;99436.39;;;11.95;66.46
51926;BME280;37952;51.938;15.480;2022-11-09T09:21:41;99446.88;;;11.94;66.29
51926;BME280;37952;51.938;15.480;2022-11-09T09:24:52;99424.75;;;11.74;66.28
51926;BME280;37952;51.938;15.480;2022-11-09T09:27:54;99455.66;;;11.85;66.21
51926;BME280;37952;51.938;15.480;2022-11-09T09:30:57;99451.01;;;11.85;66.49
51926;BME280;37952;51.938;15.480;2022-11-09T09:34:00;99478.16;;;11.96;66.17
51926;BME280;37952;51.938;15.480;2022-11-09T09:37:02;99483.25;;;11.97;65.98
51926;BME280;37952;51.938;15.480;2022-11-09T09:40:04;99480.75;;;11.95;65.92
51926;BME280;37952;51.938;15.480;2022-11-09T09:43:25;99483.21;;;11.97;65.96
51926;BME280;37952;51.938;15.480;2022-11-09T09:46:54;99477.83;;;11.98;65.90
51926;BME280;37952;51.938;15.480;2022-11-09T09:50:04;99481.85;;;12.01;65.65
51926;BME280;37952;51.938;15.480;2022-11-09T09:53:17;99475.80;;;12.05;65.79
51926;BME280;37952;51.938;15.480;2022-11-09T09:56:30;99472.71;;;12.03;65.42
51926;BME280;37952;51.938;15.480;2022-11-09T09:59:40;99482.17;;;12.10;65.57
51926;BME280;37952;51.938;15.480;2022-11-09T10:02:43;99487.67;;;12.10;65.17
51926;BME280;37952;51.938;15.480;2022-11-09T10:05:57;99484.42;;;12.13;65.18
51926;BME280;37952;51.938;15.480;2022-11-09T10:26:50;99496.77;;;12.28;64.97
51926;BME280;37952;51.938;15.480;2022-11-09T10:29:53;99498.44;;;12.32;64.98
51926;BME280;37952;51.938;15.480;2022-11-09T10:33:02;99499.73;;;12.31;64.72
51926;BME280;37952;51.938;15.480;2022-11-09T10:36:23;99495.20;;;12.33;64.70
51926;BME280;37952;51.938;15.480;2022-11-09T10:39:27;99487.58;;;12.26;64.34
51926;BME280;37952;51.938;15.480;2022-11-09T10:42:33;99483.44;;;12.27;64.76
51926;BME280;37952;51.938;15.480;2022-11-09T10:45:42;99491.23;;;12.34;64.69
51926;BME280;37952;51.938;15.480;2022-11-09T10:48:44;99479.98;;;12.26;64.32
51926;BME280;37952;51.938;15.480;2022-11-09T10:51:47;99497.01;;;12.32;64.46
51926;BME280;37952;51.938;15.480;2022-11-09T10:55:14;99489.34;;;12.23;64.00
51926;BME280;37952;51.938;15.480;2022-11-09T11:05:25;99478.62;;;12.00;64.24
51926;BME280;37952;51.938;15.480;2022-11-09T11:12:17;99475.25;;;12.10;64.93
51926;BME280;37952;51.938;15.480;2022-11-09T11:15:30;99474.83;;;12.09;65.28
51926;BME280;37952;51.938;15.480;2022-11-09T11:18:46;99487.20;;;12.14;65.37
51926;BME280;37952;51.938;15.480;2022-11-09T11:26:54;99481.44;;;12.08;66.08
51926;BME280;37952;51.938;15.480;2022-11-09T11:30:12;99477.81;;;12.06;66.15
51926;BME280;37952;51.938;15.480;2022-11-09T11:33:19;99472.96;;;12.08;66.27
51926;BME280;37952;51.938;15.480;2022-11-09T12:15:59;99457.76;;;12.10;66.49
51926;BME280;37952;51.938;15.480;2022-11-09T12:29:38;99456.09;;;12.39;66.44
51926;BME280;37952;51.938;15.480;2022-11-09T12:35:55;99454.30;;;12.41;66.45
51926;BME280;37952;51.938;15.480;2022-11-09T12:39:05;99446.67;;;12.42;66.52
51926;BME280;37952;51.938;15.480;2022-11-09T12:42:22;99441.02;;;12.42;66.64
51926;BME280;37952;51.938;15.480;2022-11-09T12:45:36;99449.63;;;12.50;66.35
51926;BME280;37952;51.938;15.480;2022-11-09T12:48:40;99444.41;;;12.46;66.12
51926;BME280;37952;51.938;15.480;2022-11-09T12:51:45;99440.05;;;12.40;66.03
51926;BME280;37952;51.938;15.480;2022-11-09T12:54:48;99434.20;;;12.33;66.06
51926;BME280;37952;51.938;15.480;2022-11-09T12:57:51;99441.33;;;12.35;66.23
51926;BME280;37952;51.938;15.480;2022-11-09T13:04:26;99441.33;;;12.47;66.05
51926;BME280;37952;51.938;15.480;2022-11-09T13:10:41;99436.84;;;12.48;65.69
51926;BME280;37952;51.938;15.480;2022-11-09T13:13:50;99433.89;;;12.48;65.64
51926;BME280;37952;51.938;15.480;2022-11-09T13:16:54;99426.32;;;12.49;65.83
51926;BME280;37952;51.938;15.480;2022-11-09T13:19:58;99424.92;;;12.47;65.55
51926;BME280;37952;51.938;15.480;2022-11-09T13:23:03;99428.25;;;12.45;65.60
51926;BME280;37952;51.938;15.480;2022-11-09T13:42:33;99444.83;;;12.48;65.61
51926;BME280;37952;51.938;15.480;2022-11-09T13:48:53;99456.38;;;12.44;65.63
51926;BME280;37952;51.938;15.480;2022-11-09T13:51:55;99456.22;;;12.39;65.74
51926;BME280;37952;51.938;15.480;2022-11-09T13:54:57;99455.60;;;12.40;65.80
51926;BME280;37952;51.938;15.480;2022-11-09T13:58:13;99461.30;;;12.40;65.83
51926;BME280;37952;51.938;15.480;2022-11-09T14:01:34;99453.54;;;12.42;65.82
51926;BME280;37952;51.938;15.480;2022-11-09T14:04:43;99448.05;;;12.35;65.77
51926;BME280;37952;51.938;15.480;2022-11-09T14:07:47;99447.36;;;12.35;65.83
51926;BME280;37952;51.938;15.480;2022-11-09T14:11:04;99445.35;;;12.26;65.96
51926;BME280;37952;51.938;15.480;2022-11-09T14:14:43;99445.25;;;12.22;66.09
51926;BME280;37952;51.938;15.480;2022-11-09T14:24:22;99451.31;;;12.22;66.06
51926;BME280;37952;51.938;15.480;2022-11-09T14:27:25;99460.83;;;12.25;65.96
51926;BME280;37952;51.938;15.480;2022-11-09T14:30:30;99462.22;;;12.25;66.08
51926;BME280;37952;51.938;15.480;2022-11-09T14:33:35;99462.65;;;12.26;66.17
51926;BME280;37952;51.938;15.480;2022-11-09T14:36:40;99461.86;;;12.22;66.12
51926;BME280;37952;51.938;15.480;2022-11-09T14:39:47;99463.44;;;12.25;66.05
51926;BME280;37952;51.938;15.480;2022-11-09T14:46:02;99461.23;;;12.14;66.06
51926;BME280;37952;51.938;15.480;2022-11-09T14:49:08;99457.70;;;12.11;66.03
51926;BME280;37952;51.938;15.480;2022-11-09T14:52:25;99453.20;;;12.04;66.27
51926;BME280;37952;51.938;15.480;2022-11-09T14:55:33;99450.40;;;12.04;66.29
51926;BME280;37952;51.938;15.480;2022-11-09T14:58:42;99438.48;;;12.00;66.25
51926;BME280;37952;51.938;15.480;2022-11-09T15:02:05;99443.66;;;12.02;66.26
51926;BME280;37952;51.938;15.480;2022-11-09T15:05:37;99454.45;;;11.94;66.56
51926;BME280;37952;51.938;15.480;2022-11-09T15:08:57;99454.05;;;11.90;66.69
51926;BME280;37952;51.938;15.480;2022-11-09T15:12:01;99457.44;;;11.87;66.69
51926;BME280;37952;51.938;15.480;2022-11-09T15:15:06;99462.28;;;11.83;66.72
51926;BME280;37952;51.938;15.480;2022-11-09T15:18:21;99468.68;;;11.80;66.77
51926;BME280;37952;51.938;15.480;2022-11-09T15:21:51;99458.45;;;11.67;67.11
51926;BME280;37952;51.938;15.480;2022-11-09T15:24:54;99464.64;;;11.67;67.32
51926;BME280;37952;51.938;15.480;2022-11-09T15:31:12;99464.31;;;11.62;67.38
51926;BME280;37952;51.938;15.480;2022-11-09T15:34:24;99465.11;;;11.58;67.18
51926;BME280;37952;51.938;15.480;2022-11-09T15:37:31;99475.40;;;11.64;67.26
51926;BME280;37952;51.938;15.480;2022-11-09T15:40:48;99476.20;;;11.63;67.35
51926;BME280;37952;51.938;15.480;2022-11-09T15:43:53;99479.66;;;11.59;67.54
51926;BME280;37952;51.938;15.480;2022-11-09T15:47:18;99480.13;;;11.57;67.51
51926;BME280;37952;51.938;15.480;2022-11-09T15:50:48;99481.98;;;11.48;67.76
51926;BME280;37952;51.938;15.480;2022-11-09T15:53:50;99488.27;;;11.47;67.69
51926;BME280;37952;51.938;15.480;2022-11-09T15:56:52;99483.46;;;11.48;67.80
51926;BME280;37952;51.938;15.480;2022-11-09T16:00:14;99490.38;;;11.47;67.87
51926;BME280;37952;51.938;15.480;2022-11-09T16:03:22;99493.16;;;11.48;67.76
51926;BME280;37952;51.938;15.480;2022-11-09T16:06:29;99494.47;;;11.44;67.85
51926;BME280;37952;51.938;15.480;2022-11-09T16:09:51;99487.08;;;11.33;68.02
51926;BME280;37952;51.938;15.480;2022-11-09T16:13:30;99494.45;;;11.31;68.07
51926;BME280;37952;51.938;15.480;2022-11-09T16:16:53;99497.19;;;11.37;68.04
51926;BME280;37952;51.938;15.480;2022-11-09T16:25:28;99513.36;;;11.33;68.00
51926;BME280;37952;51.938;15.480;2022-11-09T16:28:49;99521.18;;;11.35;68.09
51926;BME280;37952;51.938;15.480;2022-11-09T16:32:05;99522.05;;;11.35;67.96
51926;BME280;37952;51.938;15.480;2022-11-09T16:35:18;99524.61;;;11.29;68.17
51926;BME280;37952;51.938;15.480;2022-11-09T16:38:36;99519.38;;;11.06;68.58
51926;BME280;37952;51.938;15.480;2022-11-09T16:42:40;99523.06;;;11.01;68.64
51926;BME280;37952;51.938;15.480;2022-11-09T16:46:53;99526.08;;;11.01;68.76
51926;BME280;37952;51.938;15.480;2022-11-09T16:50:12;99538.02;;;10.99;68.82
51926;BME280;37952;51.938;15.480;2022-11-09T16:53:38;99535.45;;;10.98;68.73
51926;BME280;37952;51.938;15.480;2022-11-09T16:57:06;99534.36;;;10.93;68.86
51926;BME280;37952;51.938;15.480;2022-11-09T17:00:20;99528.57;;;10.85;69.06
51926;BME280;37952;51.938;15.480;2022-11-09T17:03:58;99528.44;;;10.89;68.88
51926;BME280;37952;51.938;15.480;2022-11-09T17:07:08;99530.75;;;10.83;68.95
51926;BME280;37952;51.938;15.480;2022-11-09T17:10:27;99526.50;;;10.86;68.93
51926;BME280;37952;51.938;15.480;2022-11-09T17:18:47;99531.80;;;10.81;69.23
51926;BME280;37952;51.938;15.480;2022-11-09T17:22:24;99530.11;;;10.77;69.10
51926;BME280;37952;51.938;15.480;2022-11-09T17:26:41;99527.58;;;10.78;69.03
51926;BME280;37952;51.938;15.480;2022-11-09T17:30:06;99535.92;;;10.74;69.31
51926;BME280;37952;51.938;15.480;2022-11-09T17:33:27;99541.52;;;10.78;69.03
51926;BME280;37952;51.938;15.480;2022-11-09T17:36:34;99535.31;;;10.75;68.95
51926;BME280;37952;51.938;15.480;2022-11-09T17:40:16;99539.67;;;10.68;69.37
51926;BME280;37952;51.938;15.480;2022-11-09T17:43:28;99534.08;;;10.70;69.23
51926;BME280;37952;51.938;15.480;2022-11-09T17:46:32;99541.30;;;10.73;69.12
51926;BME280;37952;51.938;15.480;2022-11-09T17:49:53;99539.39;;;10.67;69.15
51926;BME280;37952;51.938;15.480;2022-11-09T17:53:04;99533.49;;;10.68;68.86
51926;BME280;37952;51.938;15.480;2022-11-09T17:56:18;99542.33;;;10.73;69.04
51926;BME280;37952;51.938;15.480;2022-11-09T17:59:37;99542.63;;;10.69;69.15
51926;BME280;37952;51.938;15.480;2022-11-09T18:03:21;99544.68;;;10.67;69.26
51926;BME280;37952;51.938;15.480;2022-11-09T18:06:48;99543.64;;;10.67;69.19
51926;BME280;37952;51.938;15.480;2022-11-09T18:09:53;99538.41;;;10.63;69.27
51926;BME280;37952;51.938;15.480;2022-11-09T18:12:55;99545.09;;;10.66;69.36
51926;BME280;37952;51.938;15.480;2022-11-09T18:15:57;99542.05;;;10.64;69.45
51926;BME280;37952;51.938;15.480;2022-11-09T18:19:02;99547.65;;;10.64;69.31
51926;BME280;37952;51.938;15.480;2022-11-09T18:22:09;99544.77;;;10.63;69.42
51926;BME280;37952;51.938;15.480;2022-11-09T18:25:14;99549.60;;;10.62;69.57
51926;BME280;37952;51.938;15.480;2022-11-09T18:28:20;99549.64;;;10.53;69.89
51926;BME280;37952;51.938;15.480;2022-11-09T18:31:23;99552.98;;;10.55;69.65
51926;BME280;37952;51.938;15.480;2022-11-09T18:34:26;99550.95;;;10.51;69.81
51926;BME280;37952;51.938;15.480;2022-11-09T18:37:37;99555.47;;;10.55;69.75
51926;BME280;37952;51.938;15.480;2022-11-09T18:40:39;99553.64;;;10.54;69.89
51926;BME280;37952;51.938;15.480;2022-11-09T18:43:43;99551.39;;;10.50;70.08
51926;BME280;37952;51.938;15.480;2022-11-09T18:46:49;99554.12;;;10.42;70.17